createdAt,value
2017-04-15T00:00:04.485Z,0
2017-04-15T00:01:04.879Z,0
2017-04-15T00:02:04.850Z,0
2017-04-15T00:03:04.585Z,0
2017-04-15T00:04:04.942Z,0
2017-04-15T00:05:04.963Z,0
2017-04-15T00:06:04.699Z,0
2017-04-15T00:07:05.394Z,0
2017-04-15T00:08:05.368Z,0
2017-04-15T00:09:05.724Z,0
2017-04-15T00:10:05.141Z,0
2017-04-15T00:11:04.875Z,0
2017-04-15T00:12:05.217Z,0
2017-04-15T00:13:05.252Z,0
2017-04-15T00:14:05.898Z,0
2017-04-15T00:15:05.329Z,0
2017-04-15T00:16:05.057Z,0
2017-04-15T00:17:05.100Z,0
2017-04-15T00:18:05.737Z,0
2017-04-15T00:19:05.473Z,0
2017-04-15T00:20:06.129Z,0
2017-04-15T00:21:05.241Z,0
2017-04-15T00:22:05.881Z,0
2017-04-15T00:23:05.918Z,0
2017-04-15T00:24:05.701Z,0
2017-04-15T00:25:06.296Z,0
2017-04-15T00:26:06.034Z,0
2017-04-15T00:27:05.456Z,0
2017-04-15T00:28:06.098Z,0
2017-04-15T00:29:06.140Z,0
2017-04-15T00:30:06.172Z,0
2017-04-15T00:31:05.603Z,0
2017-04-15T00:32:06.309Z,0
2017-04-15T00:33:06.585Z,0
2017-04-15T00:34:06.616Z,0
2017-04-15T00:35:06.062Z,0
2017-04-15T00:36:06.388Z,0
2017-04-15T00:37:06.730Z,0
2017-04-15T00:38:06.461Z,0
2017-04-15T00:39:07.102Z,0
2017-04-15T00:40:05.934Z,0
2017-04-15T00:41:06.572Z,0
2017-04-15T00:42:06.609Z,0
2017-04-15T00:43:06.354Z,0
2017-04-15T00:44:06.982Z,0
2017-04-15T00:45:06.461Z,0
2017-04-15T00:46:07.058Z,0
2017-04-15T00:47:06.487Z,0
2017-04-15T00:48:07.129Z,0
2017-04-15T00:49:06.863Z,0
2017-04-15T00:50:06.673Z,0
2017-04-15T00:51:06.629Z,0
2017-04-15T00:52:06.359Z,0
2017-04-15T00:53:06.708Z,0
2017-04-15T00:54:06.733Z,0
2017-04-15T00:55:06.467Z,0
2017-04-15T00:56:06.806Z,0
2017-04-15T00:57:06.847Z,0
2017-04-15T00:58:06.877Z,0
2017-04-15T00:59:07.528Z,0
2017-04-15T01:00:07.371Z,0
2017-04-15T01:01:06.691Z,0
2017-04-15T01:02:07.022Z,0
2017-04-15T01:03:07.367Z,0
2017-04-15T01:04:07.403Z,0
2017-04-15T01:05:07.132Z,0
2017-04-15T01:06:07.178Z,0
2017-04-15T01:07:06.901Z,0
2017-04-15T01:08:07.243Z,0
2017-04-15T01:09:07.589Z,0
2017-04-15T01:10:07.008Z,0
2017-04-15T01:11:07.059Z,0
2017-04-15T01:12:07.393Z,0
2017-04-15T01:13:07.730Z,0
2017-04-15T01:14:07.768Z,0
2017-04-15T01:15:07.800Z,0
2017-04-15T01:16:07.227Z,0
2017-04-15T01:17:07.876Z,0
2017-04-15T01:18:07.914Z,0
2017-04-15T01:19:07.948Z,0
2017-04-15T01:20:07.673Z,0
2017-04-15T01:21:07.712Z,0
2017-04-15T01:22:07.744Z,0
2017-04-15T01:23:07.789Z,0
2017-04-15T01:24:07.842Z,0
2017-04-15T01:25:07.860Z,0
2017-04-15T01:26:08.666Z,0
2017-04-15T01:27:07.927Z,0
2017-04-15T01:28:07.963Z,0
2017-04-15T01:29:08.302Z,0
2017-04-15T01:30:08.033Z,0
2017-04-15T01:31:07.772Z,0
2017-04-15T01:32:08.106Z,0
2017-04-15T01:33:08.754Z,0
2017-04-15T01:34:07.882Z,0
2017-04-15T01:35:08.220Z,0
2017-04-15T01:36:07.958Z,0
2017-04-15T01:37:08.598Z,0
2017-04-15T01:38:08.631Z,0
2017-04-15T01:39:08.966Z,0
2017-04-15T01:40:08.399Z,0
2017-04-15T01:41:08.452Z,0
2017-04-15T01:42:08.478Z,0
2017-04-15T01:43:09.413Z,0
2017-04-15T01:44:09.150Z,0
2017-04-15T01:45:08.591Z,0
2017-04-15T01:46:08.919Z,0
2017-04-15T01:47:08.355Z,0
2017-04-15T01:48:09.011Z,0
2017-04-15T01:49:09.031Z,0
2017-04-15T01:50:08.759Z,0
2017-04-15T01:51:08.503Z,0
2017-04-15T01:52:08.828Z,0
2017-04-15T01:53:08.584Z,0
2017-04-15T01:54:08.904Z,0
2017-04-15T01:55:09.240Z,0
2017-04-15T01:56:09.578Z,0
2017-04-15T01:57:08.716Z,0
2017-04-15T01:58:08.747Z,0
2017-04-15T01:59:09.085Z,0
2017-04-15T02:00:09.731Z,0
2017-04-15T02:01:08.852Z,0
2017-04-15T02:02:09.198Z,0
2017-04-15T02:03:09.128Z,0
2017-04-15T02:04:09.568Z,0
2017-04-15T02:05:08.992Z,0
2017-04-15T02:06:09.037Z,0
2017-04-15T02:07:09.371Z,0
2017-04-15T02:08:09.706Z,0
2017-04-15T02:09:09.449Z,0
2017-04-15T02:10:09.802Z,0
2017-04-15T02:11:09.527Z,0
2017-04-15T02:12:10.159Z,0
2017-04-15T02:13:09.589Z,0
2017-04-15T02:14:09.625Z,0
2017-04-15T02:15:09.360Z,0
2017-04-15T02:16:09.742Z,0
2017-04-15T02:17:09.734Z,0
2017-04-15T02:18:09.772Z,0
2017-04-15T02:19:09.807Z,0
2017-04-15T02:20:09.847Z,0
2017-04-15T02:21:09.875Z,0
2017-04-15T02:22:09.619Z,0
2017-04-15T02:23:09.947Z,0
2017-04-15T02:24:09.685Z,0
2017-04-15T02:25:09.727Z,0
2017-04-15T02:26:09.755Z,0
2017-04-15T02:27:10.397Z,0
2017-04-15T02:28:10.129Z,0
2017-04-15T02:29:10.167Z,0
2017-04-15T02:30:09.898Z,0
2017-04-15T02:31:10.541Z,0
2017-04-15T02:32:10.283Z,0
2017-04-15T02:33:10.004Z,0
2017-04-15T02:34:10.346Z,0
2017-04-15T02:35:10.386Z,0
2017-04-15T02:36:10.415Z,0
2017-04-15T02:37:10.153Z,0
2017-04-15T02:38:10.486Z,0
2017-04-15T02:39:10.521Z,0
2017-04-15T02:40:10.872Z,0
2017-04-15T02:41:11.206Z,0
2017-04-15T02:42:10.330Z,0
2017-04-15T02:43:10.673Z,0
2017-04-15T02:44:10.428Z,0
2017-04-15T02:45:10.757Z,0
2017-04-15T02:46:10.469Z,0
2017-04-15T02:47:10.826Z,0
2017-04-15T02:48:10.852Z,0
2017-04-15T02:49:11.219Z,0
2017-04-15T02:50:10.920Z,0
2017-04-15T02:51:10.649Z,0
2017-04-15T02:52:11.299Z,0
2017-04-15T02:53:11.328Z,0
2017-04-15T02:54:11.067Z,0
2017-04-15T02:55:11.713Z,0
2017-04-15T02:56:11.135Z,0
2017-04-15T02:57:11.178Z,0
2017-04-15T02:58:11.208Z,0
2017-04-15T02:59:11.246Z,0
2017-04-15T03:00:11.577Z,0
2017-04-15T03:01:11.318Z,0
2017-04-15T03:02:11.045Z,0
2017-04-15T03:03:11.382Z,0
2017-04-15T03:04:11.730Z,0
2017-04-15T03:05:11.162Z,0
2017-04-15T03:06:11.196Z,0
2017-04-15T03:07:11.838Z,0
2017-04-15T03:08:12.176Z,0
2017-04-15T03:09:11.610Z,0
2017-04-15T03:10:11.640Z,0
2017-04-15T03:11:11.686Z,0
2017-04-15T03:12:11.709Z,0
2017-04-15T03:13:12.061Z,0
2017-04-15T03:14:12.690Z,0
2017-04-15T03:15:11.820Z,0
2017-04-15T03:16:12.105Z,0
2017-04-15T03:17:12.202Z,0
2017-04-15T03:18:12.236Z,0
2017-04-15T03:19:12.266Z,0
2017-04-15T03:20:11.692Z,0
2017-04-15T03:21:11.734Z,0
2017-04-15T03:22:12.075Z,0
2017-04-15T03:23:12.714Z,0
2017-04-15T03:24:12.745Z,0
2017-04-15T03:25:12.180Z,0
2017-04-15T03:26:11.913Z,0
2017-04-15T03:27:12.251Z,0
2017-04-15T03:28:12.285Z,0
2017-04-15T03:29:12.934Z,0
2017-04-15T03:30:12.354Z,0
2017-04-15T03:31:12.087Z,0
2017-04-15T03:32:12.128Z,0
2017-04-15T03:33:13.201Z,0
2017-04-15T03:34:13.407Z,0
2017-04-15T03:35:13.157Z,0
2017-04-15T03:36:13.209Z,0
2017-04-15T03:37:12.606Z,0
2017-04-15T03:38:12.644Z,0
2017-04-15T03:39:12.685Z,0
2017-04-15T03:40:13.332Z,0
2017-04-15T03:41:13.062Z,0
2017-04-15T03:42:12.642Z,0
2017-04-15T03:43:12.841Z,0
2017-04-15T03:44:13.462Z,0
2017-04-15T03:45:12.595Z,0
2017-04-15T03:46:12.936Z,0
2017-04-15T03:47:13.275Z,0
2017-04-15T03:48:13.014Z,0
2017-04-15T03:49:13.345Z,0
2017-04-15T03:50:12.778Z,0
2017-04-15T03:51:13.112Z,0
2017-04-15T03:52:12.846Z,0
2017-04-15T03:53:13.192Z,0
2017-04-15T03:54:12.919Z,0
2017-04-15T03:55:13.565Z,0
2017-04-15T03:56:12.993Z,0
2017-04-15T03:57:13.036Z,0
2017-04-15T03:58:13.662Z,0
2017-04-15T03:59:14.007Z,0
2017-04-15T04:00:13.575Z,0
2017-04-15T04:01:13.466Z,0
2017-04-15T04:02:13.503Z,0
2017-04-15T04:03:14.449Z,0
2017-04-15T04:04:14.195Z,0
2017-04-15T04:05:13.312Z,0
2017-04-15T04:06:13.947Z,0
2017-04-15T04:07:13.989Z,0
2017-04-15T04:08:14.111Z,0
2017-04-15T04:09:14.287Z,0
2017-04-15T04:10:14.089Z,0
2017-04-15T04:11:13.832Z,0
2017-04-15T04:12:13.869Z,0
2017-04-15T04:13:14.806Z,0
2017-04-15T04:14:13.632Z,0
2017-04-15T04:15:13.967Z,0
2017-04-15T04:16:13.705Z,0
2017-04-15T04:17:13.874Z,0
2017-04-15T04:18:14.265Z,0
2017-04-15T04:19:14.116Z,0
2017-04-15T04:20:14.453Z,0
2017-04-15T04:21:14.484Z,0
2017-04-15T04:22:14.221Z,0
2017-04-15T04:23:14.261Z,0
2017-04-15T04:24:14.591Z,0
2017-04-15T04:25:14.641Z,0
2017-04-15T04:26:14.297Z,0
2017-04-15T04:27:14.700Z,0
2017-04-15T04:28:15.041Z,0
2017-04-15T04:29:15.085Z,0
2017-04-15T04:30:14.204Z,0
2017-04-15T04:31:14.549Z,0
2017-04-15T04:32:14.577Z,0
2017-04-15T04:33:14.641Z,0
2017-04-15T04:34:14.951Z,0
2017-04-15T04:35:14.421Z,0
2017-04-15T04:36:14.419Z,0
2017-04-15T04:37:14.756Z,0
2017-04-15T04:38:15.109Z,0
2017-04-15T04:39:15.450Z,0
2017-04-15T04:40:14.880Z,0
2017-04-15T04:41:14.596Z,0
2017-04-15T04:42:14.965Z,0
2017-04-15T04:43:14.682Z,0
2017-04-15T04:44:15.312Z,5
2017-04-15T04:45:14.741Z,5
2017-04-15T04:46:15.380Z,5
2017-04-15T04:47:14.886Z,5
2017-04-15T04:48:14.857Z,5
2017-04-15T04:49:15.193Z,5
2017-04-15T04:50:14.917Z,5
2017-04-15T04:51:15.264Z,5
2017-04-15T04:52:15.596Z,5
2017-04-15T04:53:15.635Z,5
2017-04-15T04:54:15.678Z,10
2017-04-15T04:55:15.112Z,10
2017-04-15T04:56:15.754Z,10
2017-04-15T04:57:15.176Z,10
2017-04-15T04:58:15.823Z,10
2017-04-15T04:59:16.160Z,10
2017-04-15T05:00:15.605Z,10
2017-04-15T05:01:15.655Z,10
2017-04-15T05:02:15.669Z,10
2017-04-15T05:03:15.997Z,10
2017-04-15T05:04:16.342Z,10
2017-04-15T05:05:15.770Z,10
2017-04-15T05:06:15.500Z,15
2017-04-15T05:07:15.837Z,15
2017-04-15T05:08:15.871Z,15
2017-04-15T05:09:16.214Z,15
2017-04-15T05:10:16.169Z,15
2017-04-15T05:11:15.990Z,15
2017-04-15T05:12:16.014Z,15
2017-04-15T05:13:16.965Z,15
2017-04-15T05:14:16.397Z,20
2017-04-15T05:15:15.818Z,20
2017-04-15T05:16:16.157Z,20
2017-04-15T05:17:16.495Z,20
2017-04-15T05:18:16.839Z,20
2017-04-15T05:19:16.266Z,20
2017-04-15T05:20:16.005Z,25
2017-04-15T05:21:16.336Z,25
2017-04-15T05:22:16.376Z,30
2017-04-15T05:23:16.719Z,30
2017-04-15T05:24:16.763Z,30
2017-04-15T05:25:16.479Z,35
2017-04-15T05:26:16.517Z,40
2017-04-15T05:27:16.860Z,45
2017-04-15T05:28:16.900Z,45
2017-04-15T05:29:17.236Z,55
2017-04-15T05:30:16.655Z,75
2017-04-15T05:31:17.001Z,75
2017-04-15T05:32:16.754Z,65
2017-04-15T05:33:17.382Z,70
2017-04-15T05:34:17.426Z,75
2017-04-15T05:35:16.837Z,70
2017-04-15T05:36:16.870Z,85
2017-04-15T05:37:16.911Z,110
2017-04-15T05:38:16.647Z,120
2017-04-15T05:39:17.004Z,125
2017-04-15T05:40:17.026Z,130
2017-04-15T05:41:17.366Z,135
2017-04-15T05:42:16.789Z,145
2017-04-15T05:43:17.439Z,155
2017-04-15T05:44:17.777Z,160
2017-04-15T05:45:17.205Z,170
2017-04-15T05:46:17.237Z,185
2017-04-15T05:47:16.972Z,200
2017-04-15T05:48:17.313Z,220
2017-04-15T05:49:17.664Z,240
2017-04-15T05:50:17.153Z,190
2017-04-15T05:51:17.450Z,195
2017-04-15T05:52:17.763Z,175
2017-04-15T05:53:17.812Z,125
2017-04-15T05:54:17.537Z,130
2017-04-15T05:55:17.268Z,90
2017-04-15T05:56:17.633Z,80
2017-04-15T05:57:17.344Z,70
2017-04-15T05:58:17.991Z,70
2017-04-15T05:59:17.719Z,70
2017-04-15T06:00:17.761Z,70
2017-04-15T06:01:18.111Z,75
2017-04-15T06:02:18.135Z,85
2017-04-15T06:03:17.867Z,85
2017-04-15T06:04:18.514Z,85
2017-04-15T06:05:17.659Z,80
2017-04-15T06:06:17.893Z,80
2017-04-15T06:07:18.009Z,85
2017-04-15T06:08:18.370Z,90
2017-04-15T06:09:17.786Z,90
2017-04-15T06:10:17.825Z,100
2017-04-15T06:11:17.864Z,110
2017-04-15T06:12:17.901Z,110
2017-04-15T06:13:18.538Z,125
2017-04-15T06:14:18.272Z,150
2017-04-15T06:15:18.420Z,160
2017-04-15T06:16:18.647Z,160
2017-04-15T06:17:18.087Z,160
2017-04-15T06:18:18.724Z,165
2017-04-15T06:19:18.779Z,175
2017-04-15T06:20:18.494Z,170
2017-04-15T06:21:18.534Z,160
2017-04-15T06:22:18.564Z,165
2017-04-15T06:23:18.607Z,190
2017-04-15T06:24:18.662Z,220
2017-04-15T06:25:18.380Z,230
2017-04-15T06:26:19.017Z,265
2017-04-15T06:27:19.367Z,295
2017-04-15T06:28:18.813Z,310
2017-04-15T06:29:18.829Z,335
2017-04-15T06:30:18.581Z,385
2017-04-15T06:31:18.747Z,515
2017-04-15T06:32:18.816Z,555
2017-04-15T06:33:18.987Z,590
2017-04-15T06:34:19.930Z,635
2017-04-15T06:35:19.065Z,640
2017-04-15T06:36:18.790Z,635
2017-04-15T06:37:19.459Z,640
2017-04-15T06:38:19.172Z,610
2017-04-15T06:39:19.223Z,565
2017-04-15T06:40:18.956Z,565
2017-04-15T06:41:18.986Z,535
2017-04-15T06:42:19.032Z,530
2017-04-15T06:43:20.000Z,550
2017-04-15T06:44:19.417Z,550
2017-04-15T06:45:19.461Z,605
2017-04-15T06:46:19.814Z,610
2017-04-15T06:47:19.227Z,655
2017-04-15T06:48:19.877Z,650
2017-04-15T06:49:20.528Z,690
2017-04-15T06:50:19.353Z,710
2017-04-15T06:51:20.012Z,675
2017-04-15T06:52:19.762Z,690
2017-04-15T06:53:19.488Z,660
2017-04-15T06:54:20.127Z,680
2017-04-15T06:55:19.566Z,665
2017-04-15T06:56:19.603Z,600
2017-04-15T06:57:19.945Z,605
2017-04-15T06:58:20.304Z,675
2017-04-15T06:59:20.364Z,705
2017-04-15T07:00:20.071Z,710
2017-04-15T07:01:19.816Z,695
2017-04-15T07:02:20.154Z,715
2017-04-15T07:03:20.505Z,720
2017-04-15T07:04:20.245Z,730
2017-04-15T07:05:19.982Z,760
2017-04-15T07:06:20.024Z,775
2017-04-15T07:07:20.371Z,740
2017-04-15T07:08:20.414Z,705
2017-04-15T07:09:20.768Z,650
2017-04-15T07:10:20.207Z,660
2017-04-15T07:11:20.546Z,720
2017-04-15T07:12:20.900Z,750
2017-04-15T07:13:20.951Z,805
2017-04-15T07:14:20.671Z,835
2017-04-15T07:15:20.418Z,820
2017-04-15T07:16:20.759Z,775
2017-04-15T07:17:20.519Z,745
2017-04-15T07:18:20.616Z,740
2017-04-15T07:19:20.906Z,795
2017-04-15T07:20:20.628Z,775
2017-04-15T07:21:20.978Z,800
2017-04-15T07:22:20.758Z,795
2017-04-15T07:23:21.676Z,790
2017-04-15T07:24:21.419Z,760
2017-04-15T07:25:21.177Z,815
2017-04-15T07:26:22.289Z,820
2017-04-15T07:27:21.542Z,745
2017-04-15T07:28:21.182Z,755
2017-04-15T07:29:21.327Z,740
2017-04-15T07:30:21.371Z,775
2017-04-15T07:31:21.110Z,820
2017-04-15T07:32:21.782Z,945
2017-04-15T07:33:21.804Z,1065
2017-04-15T07:34:22.018Z,1100
2017-04-15T07:35:21.894Z,1085
2017-04-15T07:36:21.932Z,910
2017-04-15T07:37:21.376Z,985
2017-04-15T07:38:22.324Z,1020
2017-04-15T07:39:22.068Z,900
2017-04-15T07:40:21.811Z,925
2017-04-15T07:41:21.551Z,885
2017-04-15T07:42:22.204Z,825
2017-04-15T07:43:22.247Z,1030
2017-04-15T07:44:22.287Z,800
2017-04-15T07:45:22.027Z,725
2017-04-15T07:46:22.084Z,685
2017-04-15T07:47:22.038Z,630
2017-04-15T07:48:22.476Z,535
2017-04-15T07:49:21.909Z,510
2017-04-15T07:50:22.550Z,585
2017-04-15T07:51:21.994Z,575
2017-04-15T07:52:22.667Z,845
2017-04-15T07:53:22.388Z,650
2017-04-15T07:54:22.435Z,640
2017-04-15T07:55:22.166Z,740
2017-04-15T07:56:22.211Z,945
2017-04-15T07:57:22.559Z,1085
2017-04-15T07:58:22.303Z,720
2017-04-15T07:59:23.250Z,685
2017-04-15T08:00:23.293Z,685
2017-04-15T08:01:22.427Z,675
2017-04-15T08:02:22.472Z,620
2017-04-15T08:03:23.452Z,600
2017-04-15T08:04:22.866Z,545
2017-04-15T08:05:22.903Z,580
2017-04-15T08:06:22.946Z,730
2017-04-15T08:07:22.998Z,670
2017-04-15T08:08:23.041Z,745
2017-04-15T08:09:23.077Z,800
2017-04-15T08:10:23.719Z,805
2017-04-15T08:11:23.461Z,790
2017-04-15T08:12:22.896Z,865
2017-04-15T08:13:23.562Z,855
2017-04-15T08:14:23.587Z,755
2017-04-15T08:15:23.024Z,1030
2017-04-15T08:16:23.686Z,1050
2017-04-15T08:17:24.012Z,1245
2017-04-15T08:18:23.757Z,1415
2017-04-15T08:19:23.809Z,1495
2017-04-15T08:20:23.238Z,1075
2017-04-15T08:21:23.586Z,765
2017-04-15T08:22:23.634Z,1220
2017-04-15T08:23:23.997Z,905
2017-04-15T08:24:23.824Z,1120
2017-04-15T08:25:24.068Z,1115
2017-04-15T08:26:24.403Z,1015
2017-04-15T08:27:23.541Z,1300
2017-04-15T08:28:24.819Z,1235
2017-04-15T08:29:24.245Z,1200
2017-04-15T08:30:23.679Z,1285
2017-04-15T08:31:24.650Z,1340
2017-04-15T08:32:24.070Z,1315
2017-04-15T08:33:25.056Z,1450
2017-04-15T08:34:24.463Z,1520
2017-04-15T08:35:24.532Z,1520
2017-04-15T08:36:24.256Z,1595
2017-04-15T08:37:24.601Z,1565
2017-04-15T08:38:24.346Z,1575
2017-04-15T08:39:24.702Z,1420
2017-04-15T08:40:24.739Z,1435
2017-04-15T08:41:24.481Z,1350
2017-04-15T08:42:24.828Z,1325
2017-04-15T08:43:25.178Z,1245
2017-04-15T08:44:25.234Z,1185
2017-04-15T08:45:24.371Z,1070
2017-04-15T08:46:24.635Z,1040
2017-04-15T08:47:24.769Z,925
2017-04-15T08:48:24.817Z,810
2017-04-15T08:49:25.171Z,690
2017-04-15T08:50:24.897Z,605
2017-04-15T08:51:24.639Z,590
2017-04-15T08:52:24.996Z,600
2017-04-15T08:53:25.038Z,585
2017-04-15T08:54:25.988Z,590
2017-04-15T08:55:25.127Z,560
2017-04-15T08:56:24.868Z,525
2017-04-15T08:57:25.215Z,510
2017-04-15T08:58:25.573Z,490
2017-04-15T08:59:25.307Z,475
2017-04-15T09:00:25.670Z,480
2017-04-15T09:01:25.092Z,480
2017-04-15T09:02:25.439Z,460
2017-04-15T09:03:25.785Z,435
2017-04-15T09:04:25.527Z,465
2017-04-15T09:05:25.263Z,505
2017-04-15T09:06:25.687Z,545
2017-04-15T09:07:25.665Z,605
2017-04-15T09:08:25.907Z,630
2017-04-15T09:09:25.737Z,655
2017-04-15T09:10:26.080Z,665
2017-04-15T09:11:25.825Z,675
2017-04-15T09:12:25.865Z,670
2017-04-15T09:13:26.204Z,670
2017-04-15T09:14:26.317Z,660
2017-04-15T09:15:26.032Z,630
2017-04-15T09:16:26.033Z,605
2017-04-15T09:17:25.769Z,560
2017-04-15T09:18:25.829Z,460
2017-04-15T09:19:26.764Z,370
2017-04-15T09:20:26.497Z,305
2017-04-15T09:21:25.946Z,270
2017-04-15T09:22:26.290Z,240
2017-04-15T09:23:26.119Z,235
2017-04-15T09:24:26.673Z,230
2017-04-15T09:25:26.710Z,225
2017-04-15T09:26:26.760Z,215
2017-04-15T09:27:26.178Z,200
2017-04-15T09:28:27.155Z,200
2017-04-15T09:29:26.276Z,210
2017-04-15T09:30:26.610Z,220
2017-04-15T09:31:26.351Z,215
2017-04-15T09:32:26.396Z,225
2017-04-15T09:33:27.039Z,240
2017-04-15T09:34:26.777Z,275
2017-04-15T09:35:26.814Z,260
2017-04-15T09:36:27.154Z,260
2017-04-15T09:37:27.496Z,250
2017-04-15T09:38:26.628Z,245
2017-04-15T09:39:26.977Z,255
2017-04-15T09:40:27.478Z,250
2017-04-15T09:41:27.060Z,250
2017-04-15T09:42:27.088Z,270
2017-04-15T09:43:26.848Z,260
2017-04-15T09:44:27.178Z,240
2017-04-15T09:45:27.218Z,210
2017-04-15T09:46:27.251Z,190
2017-04-15T09:47:27.297Z,185
2017-04-15T09:48:27.505Z,200
2017-04-15T09:49:27.371Z,195
2017-04-15T09:50:27.404Z,200
2017-04-15T09:51:27.147Z,205
2017-04-15T09:52:27.509Z,195
2017-04-15T09:53:27.229Z,220
2017-04-15T09:54:27.869Z,260
2017-04-15T09:55:27.904Z,355
2017-04-15T09:56:27.358Z,545
2017-04-15T09:57:27.684Z,595
2017-04-15T09:58:28.043Z,535
2017-04-15T09:59:28.077Z,535
2017-04-15T10:00:28.410Z,620
2017-04-15T10:01:27.842Z,750
2017-04-15T10:02:28.189Z,810
2017-04-15T10:03:27.951Z,890
2017-04-15T10:04:28.265Z,615
2017-04-15T10:05:28.302Z,560
2017-04-15T10:06:28.566Z,720
2017-04-15T10:07:28.388Z,800
2017-04-15T10:08:28.435Z,745
2017-04-15T10:09:27.860Z,495
2017-04-15T10:10:28.207Z,465
2017-04-15T10:11:28.240Z,475
2017-04-15T10:12:28.281Z,550
2017-04-15T10:13:28.327Z,535
2017-04-15T10:14:28.451Z,470
2017-04-15T10:15:28.705Z,415
2017-04-15T10:16:28.449Z,370
2017-04-15T10:17:28.486Z,355
2017-04-15T10:18:28.230Z,345
2017-04-15T10:19:28.583Z,355
2017-04-15T10:20:28.308Z,410
2017-04-15T10:21:28.655Z,415
2017-04-15T10:22:29.058Z,460
2017-04-15T10:23:28.434Z,445
2017-04-15T10:24:29.077Z,600
2017-04-15T10:25:28.512Z,570
2017-04-15T10:26:28.857Z,605
2017-04-15T10:27:29.529Z,540
2017-04-15T10:28:28.627Z,545
2017-04-15T10:29:28.973Z,535
2017-04-15T10:30:29.012Z,465
2017-04-15T10:31:29.050Z,425
2017-04-15T10:32:29.099Z,440
2017-04-15T10:33:28.832Z,510
2017-04-15T10:34:29.802Z,645
2017-04-15T10:35:28.912Z,500
2017-04-15T10:36:29.271Z,885
2017-04-15T10:37:29.601Z,660
2017-04-15T10:38:29.657Z,615
2017-04-15T10:39:29.992Z,490
2017-04-15T10:40:29.421Z,785
2017-04-15T10:41:29.759Z,525
2017-04-15T10:42:29.810Z,545
2017-04-15T10:43:29.542Z,655
2017-04-15T10:44:30.191Z,845
2017-04-15T10:45:29.631Z,1735
2017-04-15T10:46:29.675Z,535
2017-04-15T10:47:29.403Z,515
2017-04-15T10:48:29.749Z,1260
2017-04-15T10:49:29.485Z,805
2017-04-15T10:50:29.539Z,505
2017-04-15T10:51:29.567Z,425
2017-04-15T10:52:30.214Z,385
2017-04-15T10:53:30.267Z,355
2017-04-15T10:54:29.996Z,315
2017-04-15T10:55:30.341Z,275
2017-04-15T10:56:30.381Z,255
2017-04-15T10:57:30.424Z,240
2017-04-15T10:58:31.064Z,245
2017-04-15T10:59:30.807Z,255
2017-04-15T11:00:29.933Z,275
2017-04-15T11:01:30.291Z,285
2017-04-15T11:02:30.019Z,300
2017-04-15T11:03:30.367Z,310
2017-04-15T11:04:30.708Z,320
2017-04-15T11:05:30.441Z,340
2017-04-15T11:06:30.177Z,340
2017-04-15T11:07:30.824Z,350
2017-04-15T11:08:30.571Z,355
2017-04-15T11:09:30.907Z,415
2017-04-15T11:10:30.641Z,445
2017-04-15T11:11:30.928Z,445
2017-04-15T11:12:31.089Z,495
2017-04-15T11:13:30.761Z,550
2017-04-15T11:14:30.805Z,525
2017-04-15T11:15:30.542Z,490
2017-04-15T11:16:30.578Z,490
2017-04-15T11:17:31.231Z,510
2017-04-15T11:18:31.570Z,530
2017-04-15T11:19:31.618Z,535
2017-04-15T11:20:31.043Z,525
2017-04-15T11:21:30.778Z,505
2017-04-15T11:22:30.819Z,525
2017-04-15T11:23:31.177Z,505
2017-04-15T11:24:31.517Z,455
2017-04-15T11:25:31.245Z,375
2017-04-15T11:26:31.289Z,325
2017-04-15T11:27:31.039Z,335
2017-04-15T11:28:31.780Z,355
2017-04-15T11:29:31.714Z,360
2017-04-15T11:30:31.148Z,395
2017-04-15T11:31:31.506Z,425
2017-04-15T11:32:31.536Z,415
2017-04-15T11:33:31.267Z,450
2017-04-15T11:34:31.616Z,460
2017-04-15T11:35:31.645Z,400
2017-04-15T11:36:31.383Z,380
2017-04-15T11:37:31.964Z,350
2017-04-15T11:38:31.773Z,385
2017-04-15T11:39:31.809Z,415
2017-04-15T11:40:31.549Z,370
2017-04-15T11:41:31.891Z,360
2017-04-15T11:42:31.630Z,345
2017-04-15T11:43:31.981Z,315
2017-04-15T11:44:32.635Z,295
2017-04-15T11:45:32.055Z,285
2017-04-15T11:46:31.784Z,265
2017-04-15T11:47:32.029Z,270
2017-04-15T11:48:31.878Z,270
2017-04-15T11:49:32.521Z,270
2017-04-15T11:50:31.947Z,255
2017-04-15T11:51:32.289Z,270
2017-04-15T11:52:32.341Z,295
2017-04-15T11:53:32.697Z,315
2017-04-15T11:54:32.707Z,340
2017-04-15T11:55:32.758Z,340
2017-04-15T11:56:33.118Z,350
2017-04-15T11:57:32.533Z,380
2017-04-15T11:58:32.569Z,380
2017-04-15T11:59:32.925Z,365
2017-04-15T12:00:32.649Z,375
2017-04-15T12:01:32.571Z,400
2017-04-15T12:02:33.335Z,395
2017-04-15T12:03:33.072Z,395
2017-04-15T12:04:32.508Z,355
2017-04-15T12:05:33.152Z,305
2017-04-15T12:06:32.586Z,330
2017-04-15T12:07:33.233Z,350
2017-04-15T12:08:33.271Z,350
2017-04-15T12:09:32.702Z,300
2017-04-15T12:10:33.052Z,260
2017-04-15T12:11:33.092Z,260
2017-04-15T12:12:33.126Z,245
2017-04-15T12:13:32.872Z,225
2017-04-15T12:14:33.210Z,220
2017-04-15T12:15:32.935Z,215
2017-04-15T12:16:33.591Z,220
2017-04-15T12:17:33.321Z,200
2017-04-15T12:18:34.269Z,200
2017-04-15T12:19:33.570Z,195
2017-04-15T12:20:33.437Z,175
2017-04-15T12:21:33.476Z,150
2017-04-15T12:22:33.222Z,130
2017-04-15T12:23:33.865Z,120
2017-04-15T12:24:33.292Z,120
2017-04-15T12:25:33.337Z,115
2017-04-15T12:26:33.990Z,115
2017-04-15T12:27:33.410Z,110
2017-04-15T12:28:33.760Z,115
2017-04-15T12:29:34.104Z,120
2017-04-15T12:30:33.831Z,120
2017-04-15T12:31:34.174Z,105
2017-04-15T12:32:33.608Z,100
2017-04-15T12:33:34.558Z,90
2017-04-15T12:34:33.993Z,90
2017-04-15T12:35:34.027Z,85
2017-04-15T12:36:33.775Z,85
2017-04-15T12:37:33.800Z,80
2017-04-15T12:38:34.477Z,75
2017-04-15T12:39:34.180Z,80
2017-04-15T12:40:34.245Z,90
2017-04-15T12:41:34.562Z,95
2017-04-15T12:42:34.307Z,95
2017-04-15T12:43:34.751Z,105
2017-04-15T12:44:34.078Z,105
2017-04-15T12:45:34.118Z,95
2017-04-15T12:46:34.447Z,90
2017-04-15T12:47:34.184Z,80
2017-04-15T12:48:35.136Z,75
2017-04-15T12:49:34.264Z,75
2017-04-15T12:50:34.299Z,75
2017-04-15T12:51:34.467Z,75
2017-04-15T12:52:34.740Z,75
2017-04-15T12:53:34.721Z,85
2017-04-15T12:54:34.760Z,80
2017-04-15T12:55:35.096Z,80
2017-04-15T12:56:34.837Z,85
2017-04-15T12:57:34.576Z,90
2017-04-15T12:58:35.220Z,85
2017-04-15T12:59:34.956Z,85
2017-04-15T13:00:35.146Z,80
2017-04-15T13:01:35.024Z,75
2017-04-15T13:02:34.759Z,70
2017-04-15T13:03:35.405Z,75
2017-04-15T13:04:34.847Z,80
2017-04-15T13:05:35.178Z,80
2017-04-15T13:06:34.913Z,80
2017-04-15T13:07:35.252Z,80
2017-04-15T13:08:35.486Z,75
2017-04-15T13:09:35.640Z,80
2017-04-15T13:10:35.076Z,80
2017-04-15T13:11:35.103Z,85
2017-04-15T13:12:35.449Z,85
2017-04-15T13:13:35.786Z,80
2017-04-15T13:14:35.216Z,85
2017-04-15T13:15:35.566Z,85
2017-04-15T13:16:35.298Z,85
2017-04-15T13:17:35.648Z,85
2017-04-15T13:18:35.686Z,90
2017-04-15T13:19:36.024Z,105
2017-04-15T13:20:35.766Z,110
2017-04-15T13:21:35.486Z,95
2017-04-15T13:22:35.524Z,110
2017-04-15T13:23:35.861Z,90
2017-04-15T13:24:36.227Z,70
2017-04-15T13:25:36.539Z,65
2017-04-15T13:26:35.976Z,60
2017-04-15T13:27:36.322Z,60
2017-04-15T13:28:36.363Z,65
2017-04-15T13:29:35.793Z,65
2017-04-15T13:30:36.439Z,80
2017-04-15T13:31:36.167Z,85
2017-04-15T13:32:36.211Z,90
2017-04-15T13:33:37.409Z,85
2017-04-15T13:34:36.590Z,75
2017-04-15T13:35:36.317Z,60
2017-04-15T13:36:36.064Z,60
2017-04-15T13:37:36.700Z,55
2017-04-15T13:38:36.736Z,55
2017-04-15T13:39:36.470Z,60
2017-04-15T13:40:36.207Z,65
2017-04-15T13:41:36.294Z,65
2017-04-15T13:42:36.586Z,60
2017-04-15T13:43:36.928Z,60
2017-04-15T13:44:36.673Z,60
2017-04-15T13:45:36.698Z,70
2017-04-15T13:46:36.440Z,65
2017-04-15T13:47:36.771Z,60
2017-04-15T13:48:37.116Z,60
2017-04-15T13:49:37.219Z,65
2017-04-15T13:50:36.895Z,70
2017-04-15T13:51:36.619Z,65
2017-04-15T13:52:36.667Z,65
2017-04-15T13:53:37.302Z,100
2017-04-15T13:54:37.040Z,120
2017-04-15T13:55:37.076Z,115
2017-04-15T13:56:37.418Z,110
2017-04-15T13:57:37.157Z,85
2017-04-15T13:58:37.497Z,85
2017-04-15T13:59:37.227Z,90
2017-04-15T14:00:36.958Z,110
2017-04-15T14:01:36.997Z,110
2017-04-15T14:02:37.042Z,130
2017-04-15T14:03:37.984Z,145
2017-04-15T14:04:37.130Z,140
2017-04-15T14:05:37.150Z,120
2017-04-15T14:06:37.190Z,110
2017-04-15T14:07:37.358Z,105
2017-04-15T14:08:37.570Z,110
2017-04-15T14:09:37.913Z,135